Time;durP1;ratioP1;P1;durP2;ratioP2;P2;SDS_P1;SDS_P2;PMS_P1;PMS_P2;Temp;Humidity;BMP_temperature;BMP_pressure;BME280_temperature;BME280_humidity;BME280_pressure;Samples;Min_cycle;Max_cycle;Signal;HPM_P1;HPM_P2
2023/06/23 00:00:31;;;;;;;2.38;1.60;;;25.80;99.90;;;;;;4899702;29;20043;-46
2023/06/23 00:02:57;;;;;;;2.13;1.13;;;25.80;99.90;;;;;;4897327;29;20035;-47
2023/06/23 00:05:23;;;;;;;2.30;1.67;;;25.80;99.90;;;;;;4904927;29;20028;-47
2023/06/23 00:07:49;;;;;;;2.10;1.27;;;25.80;99.90;;;;;;4907975;29;20024;-47
2023/06/23 00:10:15;;;;;;;2.17;1.50;;;25.80;99.90;;;;;;4899574;29;20557;-47
2023/06/23 00:12:41;;;;;;;2.40;1.58;;;25.80;99.90;;;;;;4898332;29;20036;-47
2023/06/23 00:15:12;;;;;;;4.53;1.60;;;25.80;99.90;;;;;;4901856;29;20054;-47
2023/06/23 00:17:46;;;;;;;4.05;1.67;;;25.80;99.90;;;;;;4903305;29;20123;-47
2023/06/23 00:20:13;;;;;;;2.00;1.55;;;25.80;99.90;;;;;;4924940;29;20517;-47
2023/06/23 00:22:40;;;;;;;2.35;1.45;;;25.70;99.90;;;;;;4907627;29;20028;-47
2023/06/23 00:25:09;;;;;;;2.15;1.20;;;25.70;99.90;;;;;;4904376;29;20047;-46
2023/06/23 00:27:39;;;;;;;2.22;1.50;;;25.70;99.90;;;;;;4898966;29;20035;-47
2023/06/23 00:30:06;;;;;;;3.17;1.50;;;25.80;99.90;;;;;;4908812;29;20426;-46
2023/06/23 00:32:33;;;;;;;1.88;0.95;;;25.80;99.90;;;;;;4902973;29;20050;-47
2023/06/23 00:34:59;;;;;;;2.08;1.33;;;25.80;99.90;;;;;;4900425;29;20033;-47
2023/06/23 00:37:25;;;;;;;1.30;1.00;;;25.70;99.90;;;;;;4898933;29;20028;-47
2023/06/23 00:39:51;;;;;;;2.63;1.20;;;25.80;99.90;;;;;;4902630;29;20512;-47
2023/06/23 00:42:17;;;;;;;2.75;1.50;;;25.80;99.90;;;;;;4908095;29;20514;-46
2023/06/23 00:44:43;;;;;;;2.03;1.33;;;25.70;99.90;;;;;;4900108;29;20397;-47
2023/06/23 00:47:09;;;;;;;1.73;1.20;;;25.70;99.90;;;;;;4899029;29;20031;-47
2023/06/23 00:49:35;;;;;;;3.22;1.45;;;25.70;99.90;;;;;;4896419;29;20040;-48
2023/06/23 00:52:07;;;;;;;1.80;1.52;;;25.70;99.90;;;;;;4899829;29;20025;-47
2023/06/23 00:54:36;;;;;;;2.17;1.40;;;25.70;99.90;;;;;;4901003;29;20075;-48
2023/06/23 00:57:05;;;;;;;2.72;1.73;;;25.70;99.90;;;;;;4900849;29;20127;-46
2023/06/23 00:59:31;;;;;;;1.70;1.10;;;25.70;99.90;;;;;;4904970;29;20043;-47
2023/06/23 01:01:59;;;;;;;1.83;1.15;;;25.70;99.90;;;;;;4951131;23;20051;-50
2023/06/23 01:04:25;;;;;;;;;;;25.70;99.90;;;;;;4955284;28;20051;-50
2023/06/23 01:06:59;;;;;;;1.52;1.10;;;25.70;99.90;;;;;;4946996;28;20452;-50
2023/06/23 01:09:49;;;;;;;1.73;1.40;;;25.70;99.90;;;;;;4948048;28;20031;-50
2023/06/23 01:12:24;;;;;;;1.95;1.65;;;25.70;99.90;;;;;;4946818;28;20592;-51
2023/06/23 01:15:07;;;;;;;2.63;1.30;;;25.70;99.90;;;;;;4961859;28;20475;-49
2023/06/23 01:17:42;;;;;;;2.38;1.58;;;25.60;99.90;;;;;;4953371;28;20115;-48
2023/06/23 01:20:20;;;;;;;3.10;1.58;;;25.60;99.90;;;;;;4938188;28;20102;-49
2023/06/23 01:23:16;;;;;;;2.85;1.85;;;25.60;99.90;;;;;;4953927;28;20022;-50
2023/06/23 01:26:09;;;;;;;4.47;1.63;;;25.60;99.90;;;;;;4951253;28;20114;-50
2023/06/23 01:28:47;;;;;;;2.75;1.50;;;25.50;99.90;;;;;;4951253;28;20035;-50
2023/06/23 01:31:22;;;;;;;1.88;1.55;;;25.50;99.90;;;;;;4958510;28;20019;-50
2023/06/23 01:33:57;;;;;;;1.75;1.42;;;25.60;99.90;;;;;;4963736;28;20026;-50
2023/06/23 01:36:55;;;;;;;2.10;1.50;;;25.50;99.90;;;;;;4950797;28;20402;-50
2023/06/23 01:39:24;;;;;;;5.13;1.52;;;25.50;99.90;;;;;;4952834;28;20048;-50
2023/06/23 01:42:15;;;;;;;2.33;1.33;;;25.50;99.90;;;;;;4943193;28;20051;-51
2023/06/23 01:44:54;;;;;;;2.60;1.42;;;25.50;99.90;;;;;;4933387;29;20095;-51
2023/06/23 01:47:27;;;;;;;2.05;1.33;;;25.50;99.90;;;;;;4937219;29;20028;-51
2023/06/23 01:49:55;;;;;;;4.18;1.70;;;25.50;99.90;;;;;;4937359;29;20048;-50
2023/06/23 01:52:21;;;;;;;3.72;1.45;;;25.50;99.90;;;;;;4937365;29;20388;-50
2023/06/23 01:54:49;;;;;;;2.58;1.42;;;25.50;99.90;;;;;;4941706;29;20027;-51
2023/06/23 01:57:18;;;;;;;3.65;1.58;;;25.50;99.90;;;;;;4945239;29;20028;-50
2023/06/23 01:59:45;;;;;;;3.63;1.92;;;25.50;99.90;;;;;;4937059;29;20078;-50
2023/06/23 02:02:13;;;;;;;2.95;1.50;;;25.60;99.90;;;;;;4937359;29;20405;-52
2023/06/23 02:04:39;;;;;;;;;;;25.50;99.90;;;;;;4937314;29;20063;-51
2023/06/23 02:07:07;;;;;;;2.20;1.52;;;25.50;99.90;;;;;;4946914;29;19906;-51
2023/06/23 02:09:35;;;;;;;;;;;25.60;99.90;;;;;;4951763;29;20408;-51
2023/06/23 02:12:06;;;;;;;8.80;1.95;;;25.60;99.90;;;;;;4947623;29;19981;-51
2023/06/23 02:14:34;;;;;;;5.22;2.15;;;25.60;99.90;;;;;;4940189;29;20026;-51
2023/06/23 02:17:03;;;;;;;3.22;1.77;;;25.60;99.90;;;;;;4946167;29;20019;-50
2023/06/23 02:19:31;;;;;;;3.78;1.90;;;25.60;99.90;;;;;;4942741;29;20102;-51
2023/06/23 02:21:58;;;;;;;3.63;1.88;;;25.60;99.90;;;;;;4946237;29;20110;-50
2023/06/23 02:24:25;;;;;;;6.78;1.90;;;25.60;99.90;;;;;;4936631;28;20506;-50
2023/06/23 02:26:53;;;;;;;8.02;2.63;;;25.60;99.90;;;;;;4936557;29;20039;-51
2023/06/23 02:29:21;;;;;;;4.47;1.98;;;25.60;99.90;;;;;;4936408;29;20035;-50
2023/06/23 02:31:47;;;;;;;5.07;2.25;;;25.60;99.90;;;;;;4936723;29;20023;-50
2023/06/23 02:34:13;;;;;;;4.78;2.38;;;25.60;99.90;;;;;;4949085;29;20037;-50
2023/06/23 02:37:03;;;;;;;5.00;2.10;;;25.60;99.90;;;;;;4936587;29;20043;-50
2023/06/23 02:39:37;;;;;;;3.28;2.08;;;25.60;99.90;;;;;;4934398;29;20039;-50
2023/06/23 02:42:06;;;;;;;3.38;2.03;;;25.60;99.90;;;;;;4954593;29;20118;-50
2023/06/23 02:44:42;;;;;;;3.85;1.65;;;25.70;99.90;;;;;;4938106;29;20083;-50
2023/06/23 02:47:16;;;;;;;3.85;1.73;;;25.60;99.90;;;;;;4936449;29;20024;-50
2023/06/23 02:49:45;;;;;;;5.93;1.70;;;25.60;99.90;;;;;;4936169;29;20472;-50
2023/06/23 02:52:13;;;;;;;7.53;2.40;;;25.60;99.90;;;;;;4936345;29;20023;-50
2023/06/23 02:54:44;;;;;;;4.45;2.05;;;25.70;99.90;;;;;;4936222;29;20027;-50
2023/06/23 02:57:17;;;;;;;4.25;2.10;;;25.70;99.90;;;;;;4936364;29;20051;-51
2023/06/23 02:59:45;;;;;;;4.07;2.03;;;25.70;99.90;;;;;;4936019;29;20032;-50
2023/06/23 03:02:15;;;;;;;6.13;2.00;;;25.70;99.90;;;;;;4945609;29;20047;-50
2023/06/23 03:04:41;;;;;;;5.75;2.05;;;25.70;99.90;;;;;;4942322;29;20023;-50
2023/06/23 03:07:10;;;;;;;2.90;1.60;;;25.70;99.90;;;;;;4955144;29;20028;-50
2023/06/23 03:09:37;;;;;;;2.88;1.73;;;25.70;99.90;;;;;;4942516;29;20024;-50
2023/06/23 03:12:03;;;;;;;;;;;25.70;99.90;;;;;;4946658;29;20023;-50
2023/06/23 03:14:29;;;;;;;2.85;1.63;;;25.70;99.90;;;;;;4936577;29;19953;-50
2023/06/23 03:17:04;;;;;;;3.88;1.70;;;25.70;99.90;;;;;;4947513;29;20031;-50
2023/06/23 03:19:29;;;;;;;6.95;1.88;;;25.70;99.90;;;;;;4935647;29;20028;-50
2023/06/23 03:22:11;;;;;;;3.83;1.65;;;25.70;99.90;;;;;;4948425;29;20026;-50
2023/06/23 03:24:43;;;;;;;3.38;2.15;;;25.80;99.90;;;;;;4935891;29;20027;-50
2023/06/23 03:27:11;;;;;;;3.40;2.00;;;25.70;99.90;;;;;;4943511;29;20027;-50
2023/06/23 03:29:59;;;;;;;3.65;1.80;;;25.80;99.90;;;;;;4940633;29;20020;-50
2023/06/23 03:32:34;;;;;;;5.95;2.38;;;25.70;99.90;;;;;;4934479;29;20019;-50
2023/06/23 03:35:08;;;;;;;3.28;1.75;;;25.80;99.90;;;;;;4935450;29;20020;-50
2023/06/23 03:37:40;;;;;;;3.40;1.73;;;25.80;99.90;;;;;;4947441;29;20114;-50
2023/06/23 03:40:11;;;;;;;5.25;2.10;;;25.80;99.90;;;;;;4948996;29;20506;-50
2023/06/23 03:42:43;;;;;;;3.28;2.03;;;25.80;99.90;;;;;;4936069;29;20047;-50
2023/06/23 03:45:12;;;;;;;5.18;2.53;;;25.80;99.90;;;;;;4954520;29;20035;-50
2023/06/23 03:47:40;;;;;;;7.25;2.25;;;25.80;99.90;;;;;;4942280;29;20035;-50
2023/06/23 03:50:11;;;;;;;6.55;2.35;;;25.80;99.90;;;;;;4934167;29;20031;-50
2023/06/23 03:52:39;;;;;;;7.55;2.67;;;25.80;99.90;;;;;;4947733;29;20030;-50
2023/06/23 03:55:07;;;;;;;5.53;2.40;;;25.80;99.90;;;;;;4935845;29;20019;-50
2023/06/23 03:57:35;;;;;;;5.25;1.98;;;25.80;99.90;;;;;;4935146;29;20039;-50
2023/06/23 04:00:03;;;;;;;6.55;2.10;;;25.80;99.90;;;;;;4934905;29;20055;-50
2023/06/23 04:02:30;;;;;;;5.07;2.30;;;25.80;99.90;;;;;;4945598;29;20094;-50
2023/06/23 04:04:59;;;;;;;14.82;2.95;;;25.90;99.90;;;;;;4935606;28;20027;-50
2023/06/23 04:07:26;;;;;;;5.57;2.10;;;25.90;99.90;;;;;;4945463;29;20031;-50
2023/06/23 04:09:53;;;;;;;6.55;2.50;;;25.90;99.90;;;;;;4949392;29;20026;-50
2023/06/23 04:12:21;;;;;;;9.00;3.47;;;25.90;99.90;;;;;;4935095;29;20078;-50
2023/06/23 04:14:51;;;;;;;7.90;3.28;;;25.90;99.90;;;;;;4947557;29;20381;-50
2023/06/23 04:17:21;;;;;;;7.95;3.80;;;25.90;99.90;;;;;;4933593;29;20035;-50
2023/06/23 04:19:50;;;;;;;7.53;2.72;;;25.90;99.90;;;;;;4937680;29;20043;-51
2023/06/23 04:22:19;;;;;;;8.90;2.85;;;25.90;99.90;;;;;;4942846;29;20034;-50
2023/06/23 04:24:47;;;;;;;5.00;2.40;;;25.90;99.90;;;;;;4934674;29;20031;-51
2023/06/23 04:27:14;;;;;;;8.18;3.53;;;26.00;99.90;;;;;;4945092;29;20023;-50
2023/06/23 04:29:44;;;;;;;7.32;3.00;;;26.00;99.90;;;;;;4936941;29;20032;-50
2023/06/23 04:32:12;;;;;;;9.35;2.78;;;26.00;99.90;;;;;;4935005;29;20031;-51
2023/06/23 04:34:38;;;;;;;7.50;2.92;;;26.00;99.90;;;;;;4933609;29;20039;-50
2023/06/23 04:37:30;;;;;;;5.07;2.40;;;26.00;99.90;;;;;;4934749;29;20023;-49
2023/06/23 04:40:07;;;;;;;7.15;2.80;;;26.00;99.90;;;;;;4934614;29;20063;-50
2023/06/23 04:42:55;;;;;;;15.50;3.80;;;26.00;99.90;;;;;;4934500;29;20024;-50
2023/06/23 04:45:26;;;;;;;5.90;2.42;;;26.00;99.90;;;;;;4934712;29;20026;-50
2023/06/23 04:48:01;;;;;;;9.38;3.95;;;26.00;99.90;;;;;;4935829;29;20023;-50
2023/06/23 04:50:34;;;;;;;8.27;5.32;;;26.10;99.90;;;;;;4945768;29;20023;-50
2023/06/23 04:53:22;;;;;;;8.55;3.35;;;26.10;99.90;;;;;;4942762;29;20050;-50
2023/06/23 04:55:53;;;;;;;7.63;3.85;;;26.00;99.90;;;;;;4936980;29;20028;-50
2023/06/23 04:58:23;;;;;;;11.85;4.10;;;26.10;99.90;;;;;;4954823;29;20086;-50
2023/06/23 05:00:51;;;;;;;13.73;4.63;;;26.10;99.90;;;;;;4957202;29;20075;-50
2023/06/23 05:03:17;;;;;;;11.68;3.30;;;26.00;99.90;;;;;;4941307;28;20361;-50
2023/06/23 05:05:45;;;;;;;12.82;5.13;;;26.10;99.90;;;;;;4957371;29;20027;-50
2023/06/23 05:08:13;;;;;;;11.82;4.60;;;26.10;99.90;;;;;;4943066;28;20357;-50
2023/06/23 05:10:41;;;;;;;10.80;3.50;;;26.10;99.90;;;;;;4949912;29;20024;-50
2023/06/23 05:13:10;;;;;;;10.05;3.50;;;26.00;99.90;;;;;;4938088;29;20028;-50
2023/06/23 05:15:36;;;;;;;11.38;5.75;;;26.10;99.90;;;;;;4944665;29;20051;-50
2023/06/23 05:18:05;;;;;;;10.13;4.05;;;26.10;99.90;;;;;;4943619;28;20480;-50
2023/06/23 05:20:32;;;;;;;10.07;3.63;;;26.00;99.90;;;;;;4937789;29;20499;-50
2023/06/23 05:23:02;;;;;;;10.30;3.00;;;26.10;99.90;;;;;;4937787;29;20083;-51
2023/06/23 05:25:30;;;;;;;8.88;2.70;;;26.10;99.90;;;;;;4938218;29;20028;-51
2023/06/23 05:28:02;;;;;;;10.23;3.05;;;26.10;99.90;;;;;;4937958;29;20427;-51
2023/06/23 05:30:29;;;;;;;10.45;3.17;;;26.00;99.90;;;;;;4950330;29;20027;-51
2023/06/23 05:32:57;;;;;;;6.45;3.35;;;26.10;99.90;;;;;;4937566;29;20030;-51
2023/06/23 05:35:25;;;;;;;11.13;3.28;;;26.10;99.90;;;;;;4942699;29;20079;-51
2023/06/23 05:37:51;;;;;;;8.75;3.38;;;26.10;99.90;;;;;;4944990;29;20071;-51
2023/06/23 05:40:17;;;;;;;12.43;2.93;;;26.10;99.90;;;;;;4950069;29;20099;-51
2023/06/23 05:42:44;;;;;;;12.13;3.00;;;26.10;99.90;;;;;;4937531;29;20753;-51
2023/06/23 05:45:11;;;;;;;8.02;4.32;;;26.10;99.90;;;;;;4937583;29;20050;-51
2023/06/23 05:48:01;;;;;;;8.48;3.05;;;26.10;99.90;;;;;;4949872;29;20483;-51
2023/06/23 05:50:32;;;;;;;11.38;2.78;;;26.20;99.90;;;;;;4946174;29;20039;-51
2023/06/23 05:53:04;;;;;;;6.95;2.60;;;26.10;99.90;;;;;;4940310;28;20024;-51
2023/06/23 05:55:32;;;;;;;9.98;3.53;;;26.20;99.90;;;;;;4947585;29;20023;-51
2023/06/23 05:58:04;;;;;;;13.95;3.38;;;26.10;99.90;;;;;;4940768;29;20036;-51
2023/06/23 06:00:42;;;;;;;11.70;3.63;;;26.20;99.90;;;;;;4936600;29;20079;-53
2023/06/23 06:03:12;;;;;;;6.20;2.70;;;26.20;99.90;;;;;;4936971;29;20050;-51
2023/06/23 06:05:45;;;;;;;5.30;3.00;;;26.20;99.90;;;;;;4937129;29;20063;-50
2023/06/23 06:08:11;;;;;;;8.73;3.10;;;26.20;99.90;;;;;;4936058;29;20435;-50
2023/06/23 06:10:38;;;;;;;6.80;3.25;;;26.20;99.90;;;;;;4945623;29;20488;-50
2023/06/23 06:13:06;;;;;;;8.33;3.80;;;26.30;99.90;;;;;;4943095;29;20035;-50
2023/06/23 06:15:34;;;;;;;13.13;5.72;;;26.30;99.90;;;;;;4945551;28;20510;-50
2023/06/23 06:18:04;;;;;;;11.43;5.90;;;26.20;99.90;;;;;;4948095;29;20055;-50
2023/06/23 06:20:32;;;;;;;11.43;3.83;;;26.30;99.90;;;;;;4936773;29;20050;-50
2023/06/23 06:22:59;;;;;;;11.10;3.13;;;26.30;99.90;;;;;;4938610;29;20032;-50
2023/06/23 06:25:26;;;;;;;7.32;3.55;;;26.30;99.90;;;;;;4947137;28;20507;-50
2023/06/23 06:27:53;;;;;;;7.03;3.88;;;26.30;99.90;;;;;;4936538;29;20055;-50
2023/06/23 06:30:21;;;;;;;8.13;3.30;;;26.40;99.90;;;;;;4944151;29;20510;-50
2023/06/23 06:32:49;;;;;;;10.30;3.42;;;26.40;99.90;;;;;;4943184;28;20028;-50
2023/06/23 06:35:16;;;;;;;7.93;4.00;;;26.40;99.90;;;;;;4947724;29;20022;-50
2023/06/23 06:37:47;;;;;;;13.53;3.73;;;26.40;99.90;;;;;;4949163;29;20032;-50
2023/06/23 06:40:17;;;;;;;10.93;2.97;;;26.40;99.90;;;;;;4944012;29;20054;-50
2023/06/23 06:42:43;;;;;;;13.30;5.57;;;26.40;99.90;;;;;;4939995;29;20051;-50
2023/06/23 06:45:09;;;;;;;10.52;3.08;;;26.40;99.90;;;;;;4936317;29;20066;-50
2023/06/23 06:47:40;;;;;;;9.10;3.38;;;26.50;99.90;;;;;;4948946;29;20019;-50
2023/06/23 06:50:08;;;;;;;6.40;2.60;;;26.50;99.90;;;;;;4941839;29;20031;-50
2023/06/23 06:52:37;;;;;;;6.38;3.00;;;26.50;99.90;;;;;;4942770;28;20063;-50
2023/06/23 06:55:03;;;;;;;8.10;2.65;;;26.50;99.90;;;;;;4936046;29;20030;-50
2023/06/23 06:57:31;;;;;;;10.23;2.73;;;26.50;99.90;;;;;;4935884;29;20027;-50
2023/06/23 06:59:57;;;;;;;6.70;3.00;;;26.50;99.90;;;;;;4935664;29;20785;-51
2023/06/23 07:02:24;;;;;;;6.82;2.90;;;26.50;99.90;;;;;;4935916;29;20052;-51
2023/06/23 07:04:52;;;;;;;12.38;2.80;;;26.50;99.90;;;;;;4952353;29;20028;-51
2023/06/23 07:07:17;;;;;;;8.40;3.95;;;26.60;99.90;;;;;;4944542;29;20547;-52
2023/06/23 07:09:43;;;;;;;8.95;3.17;;;26.60;99.90;;;;;;4938117;29;20031;-50
2023/06/23 07:12:09;;;;;;;8.35;3.50;;;26.60;99.90;;;;;;4944911;28;20031;-50
2023/06/23 07:14:36;;;;;;;8.70;3.47;;;26.70;99.90;;;;;;4947018;29;20404;-50
2023/06/23 07:17:02;;;;;;;8.73;3.35;;;26.70;99.90;;;;;;4943101;29;20492;-50
2023/06/23 07:19:27;;;;;;;6.75;3.00;;;26.60;99.90;;;;;;4940745;29;20072;-50
2023/06/23 07:21:53;;;;;;;7.57;3.42;;;26.70;99.90;;;;;;4942050;29;20193;-50
2023/06/23 07:24:19;;;;;;;4.00;2.70;;;26.70;99.90;;;;;;4954853;29;20109;-51
2023/06/23 07:26:45;;;;;;;9.07;3.08;;;26.70;99.90;;;;;;4935873;29;20496;-52
2023/06/23 07:29:10;;;;;;;7.00;2.85;;;26.80;99.90;;;;;;4934868;29;20369;-51
2023/06/23 07:31:37;;;;;;;7.10;3.40;;;26.80;99.90;;;;;;4952551;29;20468;-52
2023/06/23 07:34:03;;;;;;;5.45;2.45;;;26.80;99.90;;;;;;4943677;29;20472;-51
2023/06/23 07:36:29;;;;;;;4.80;2.30;;;26.80;99.90;;;;;;4938386;29;20066;-51
2023/06/23 07:38:55;;;;;;;4.75;2.80;;;26.80;99.90;;;;;;4954545;29;20424;-53
2023/06/23 07:41:21;;;;;;;9.25;3.47;;;26.80;99.90;;;;;;4951399;29;20083;-51
2023/06/23 07:43:46;;;;;;;5.28;2.97;;;26.80;99.90;;;;;;4935296;29;20441;-51
2023/06/23 07:46:12;;;;;;;7.72;3.13;;;26.80;99.90;;;;;;4935327;29;20384;-51
2023/06/23 07:48:38;;;;;;;3.80;2.58;;;26.80;99.90;;;;;;4935222;29;20518;-51
2023/06/23 07:51:04;;;;;;;10.23;3.00;;;26.80;99.90;;;;;;4947929;29;20436;-51
2023/06/23 07:53:29;;;;;;;4.18;2.60;;;26.90;99.90;;;;;;4947631;29;20027;-51
2023/06/23 07:55:55;;;;;;;6.03;3.10;;;26.90;99.90;;;;;;4934947;29;20090;-51
2023/06/23 07:58:21;;;;;;;5.03;2.72;;;26.90;99.90;;;;;;4952695;29;20062;-51
2023/06/23 08:00:47;;;;;;;6.28;2.85;;;26.90;99.90;;;;;;4942991;29;20126;-51
2023/06/23 08:03:13;;;;;;;6.90;3.13;;;27.00;99.90;;;;;;4938499;29;20030;-51
2023/06/23 08:05:41;;;;;;;6.47;3.22;;;27.00;99.90;;;;;;4954232;29;20146;-51
2023/06/23 08:08:07;;;;;;;5.95;3.10;;;26.90;99.90;;;;;;4936194;29;20096;-50
2023/06/23 08:10:33;;;;;;;6.65;3.03;;;27.00;99.90;;;;;;4943462;29;20110;-50
2023/06/23 08:12:58;;;;;;;4.53;2.60;;;27.00;99.90;;;;;;4939033;29;20067;-50
2023/06/23 08:15:24;;;;;;;5.72;3.03;;;27.00;99.90;;;;;;4941922;29;20019;-50
2023/06/23 08:17:50;;;;;;;6.63;2.95;;;27.00;99.90;;;;;;4939438;29;20038;-50
2023/06/23 08:20:16;;;;;;;7.47;2.83;;;27.00;99.90;;;;;;4934779;29;20038;-50
2023/06/23 08:22:41;;;;;;;5.20;2.88;;;27.10;99.90;;;;;;4936503;29;20054;-51
2023/06/23 08:25:08;;;;;;;10.18;3.13;;;27.10;99.90;;;;;;4959118;28;20026;-50
2023/06/23 08:27:34;;;;;;;5.10;2.83;;;27.10;99.90;;;;;;4947121;29;20027;-50
2023/06/23 08:30:00;;;;;;;6.85;3.33;;;27.10;99.90;;;;;;4956126;28;20531;-50
2023/06/23 08:32:26;;;;;;;10.80;3.30;;;27.20;99.90;;;;;;4951826;29;20035;-50
2023/06/23 08:34:51;;;;;;;8.13;2.97;;;27.20;99.90;;;;;;4940819;29;20039;-50
2023/06/23 08:37:17;;;;;;;6.30;3.15;;;27.20;99.90;;;;;;4950638;29;20054;-50
2023/06/23 08:39:43;;;;;;;7.88;3.65;;;27.20;99.90;;;;;;4944256;29;20611;-50
2023/06/23 08:42:09;;;;;;;6.22;3.53;;;27.20;99.90;;;;;;4941059;29;20030;-50
2023/06/23 08:44:46;;;;;;;7.78;3.38;;;27.20;99.90;;;;;;4955149;29;20054;-57
2023/06/23 08:47:13;;;;;;;5.93;3.33;;;27.20;99.90;;;;;;4950606;28;20103;-50
2023/06/23 08:49:41;;;;;;;7.15;4.15;;;27.20;99.90;;;;;;4941082;29;20036;-50
2023/06/23 08:52:09;;;;;;;6.70;3.20;;;27.20;99.90;;;;;;4940984;29;20035;-50
2023/06/23 08:54:36;;;;;;;4.72;3.22;;;27.20;99.90;;;;;;4940882;29;20432;-51
2023/06/23 08:57:03;;;;;;;7.63;3.58;;;27.30;99.90;;;;;;4940914;29;20059;-51
2023/06/23 08:59:29;;;;;;;;;;;27.20;99.90;;;;;;4941346;29;20500;-51
2023/06/23 09:01:55;;;;;;;5.03;3.13;;;27.30;99.90;;;;;;4940589;29;20019;-50
2023/06/23 09:04:21;;;;;;;6.13;3.58;;;27.30;99.90;;;;;;4941081;29;20110;-50
2023/06/23 09:06:47;;;;;;;8.15;3.92;;;27.30;99.90;;;;;;4943684;29;20054;-51
2023/06/23 09:09:13;;;;;;;7.43;3.47;;;27.30;99.90;;;;;;4959941;28;20035;-51
2023/06/23 09:11:40;;;;;;;10.80;3.90;;;27.30;99.90;;;;;;4959890;29;20102;-50
2023/06/23 09:14:07;;;;;;;6.30;3.78;;;27.30;99.90;;;;;;4949406;29;20031;-51
2023/06/23 09:16:33;;;;;;;4.65;2.97;;;27.30;99.90;;;;;;4940731;29;20020;-51
2023/06/23 09:19:02;;;;;;;8.45;3.58;;;27.40;99.90;;;;;;4940565;29;20036;-51
2023/06/23 09:21:28;;;;;;;7.18;3.55;;;27.40;99.90;;;;;;4953387;29;20059;-51
2023/06/23 09:24:03;;;;;;;9.85;4.38;;;27.40;99.90;;;;;;4940927;29;20031;-51
2023/06/23 09:26:42;;;;;;;6.00;3.38;;;27.30;99.90;;;;;;4940617;29;20015;-51
2023/06/23 09:29:15;;;;;;;7.22;3.55;;;27.40;99.90;;;;;;4940533;29;20031;-50
2023/06/23 09:31:41;;;;;;;6.20;3.53;;;27.40;99.90;;;;;;4953117;28;20107;-51
2023/06/23 09:34:07;;;;;;;9.93;3.70;;;27.40;99.90;;;;;;4937645;29;20035;-51
2023/06/23 09:36:33;;;;;;;4.60;3.53;;;27.40;99.90;;;;;;4937400;29;20023;-51
2023/06/23 09:39:01;;;;;;;10.43;3.85;;;27.50;99.90;;;;;;4937610;29;20023;-50
2023/06/23 09:41:31;;;;;;;7.20;4.03;;;27.50;99.90;;;;;;4940829;29;20510;-51
2023/06/23 09:43:57;;;;;;;5.95;3.58;;;27.50;99.90;;;;;;4956449;29;20032;-51
2023/06/23 09:46:23;;;;;;;8.65;3.60;;;27.50;99.90;;;;;;4943271;29;20415;-51
2023/06/23 09:48:50;;;;;;;7.97;3.65;;;27.50;99.90;;;;;;4947415;29;20086;-51
2023/06/23 09:51:20;;;;;;;7.13;2.92;;;27.50;99.90;;;;;;4951518;29;20050;-51
2023/06/23 09:53:47;;;;;;;8.85;3.50;;;27.60;99.90;;;;;;4956379;29;20042;-51
2023/06/23 09:56:14;;;;;;;;;;;27.60;99.90;;;;;;4956013;29;20020;-51
2023/06/23 09:58:41;;;;;;;8.43;3.38;;;27.60;99.90;;;;;;4937083;29;20275;-51
2023/06/23 10:01:10;;;;;;;9.40;3.17;;;27.70;99.90;;;;;;4936969;29;20496;-51
2023/06/23 10:03:50;;;;;;;7.93;3.47;;;27.70;99.90;;;;;;4943372;29;20027;-51
2023/06/23 10:06:32;;;;;;;10.05;3.67;;;27.80;99.90;;;;;;4941387;29;20078;-51
2023/06/23 10:09:00;;;;;;;7.03;3.72;;;27.80;99.90;;;;;;4937001;29;20163;-51
2023/06/23 10:11:37;;;;;;;8.85;3.10;;;27.80;99.90;;;;;;4935737;29;20058;-50
2023/06/23 10:14:06;;;;;;;9.00;3.60;;;27.90;99.90;;;;;;4936899;29;20028;-50
2023/06/23 10:16:33;;;;;;;11.10;3.90;;;27.90;99.90;;;;;;4938495;29;20073;-50
2023/06/23 10:18:59;;;;;;;9.70;3.72;;;27.90;99.90;;;;;;4946230;29;20043;-51
2023/06/23 10:21:25;;;;;;;5.75;2.95;;;28.00;99.90;;;;;;4937518;29;20031;-50
2023/06/23 10:23:54;;;;;;;8.77;3.55;;;28.00;99.90;;;;;;4944705;29;20582;-50
2023/06/23 10:26:22;;;;;;;6.47;3.50;;;28.00;99.90;;;;;;4940748;29;20148;-50
2023/06/23 10:28:50;;;;;;;9.25;2.90;;;28.00;99.90;;;;;;4936574;29;20097;-50
2023/06/23 10:31:17;;;;;;;13.13;3.53;;;28.00;99.90;;;;;;4936290;29;20028;-50
2023/06/23 10:33:45;;;;;;;8.07;3.10;;;28.00;99.90;;;;;;4936640;29;20027;-51
2023/06/23 10:36:16;;;;;;;12.10;3.72;;;28.10;99.90;;;;;;4936618;29;20119;-51
2023/06/23 10:38:45;;;;;;;4.72;2.95;;;28.10;99.90;;;;;;4936542;29;20122;-51
2023/06/23 10:41:12;;;;;;;7.25;2.78;;;28.10;99.90;;;;;;4936319;29;20036;-51
2023/06/23 10:43:41;;;;;;;6.33;2.57;;;28.10;99.90;;;;;;4936430;28;20055;-52
2023/06/23 10:46:07;;;;;;;8.57;3.28;;;28.10;99.90;;;;;;4948338;28;20038;-52
2023/06/23 10:48:33;;;;;;;12.30;4.00;;;28.20;99.90;;;;;;4943001;29;20074;-51
2023/06/23 10:51:00;;;;;;;6.70;3.25;;;28.10;99.90;;;;;;4943961;29;20051;-51
2023/06/23 10:53:31;;;;;;;15.25;3.85;;;28.10;99.90;;;;;;4954913;29;20423;-51
2023/06/23 10:55:57;;;;;;;5.88;3.75;;;28.20;99.90;;;;;;4955459;29;20086;-51
2023/06/23 10:58:24;;;;;;;7.18;3.25;;;28.20;99.90;;;;;;4937781;29;20325;-51
2023/06/23 11:00:52;;;;;;;7.60;2.57;;;28.20;99.90;;;;;;4935742;29;20055;-51
2023/06/23 11:03:26;;;;;;;9.35;3.35;;;28.20;99.90;;;;;;4935863;29;20032;-51
2023/06/23 11:05:54;;;;;;;8.48;3.38;;;28.30;99.90;;;;;;4937436;29;20052;-51
2023/06/23 11:08:31;;;;;;;7.03;3.13;;;28.30;99.90;;;;;;4944008;29;20027;-51
2023/06/23 11:11:17;;;;;;;9.52;3.83;;;28.30;99.90;;;;;;4935867;29;20020;-51
2023/06/23 11:13:49;;;;;;;7.78;3.95;;;28.30;99.90;;;;;;4935504;29;20559;-52
2023/06/23 11:16:29;;;;;;;8.10;3.70;;;28.40;99.90;;;;;;4935863;29;20481;-51
2023/06/23 11:18:59;;;;;;;8.82;3.70;;;28.30;99.90;;;;;;4935446;29;20031;-51
2023/06/23 11:21:28;;;;;;;10.98;3.83;;;28.30;99.90;;;;;;4935545;29;20024;-51
2023/06/23 11:24:13;;;;;;;9.55;3.10;;;28.30;99.90;;;;;;4935621;29;20074;-51
2023/06/23 11:26:52;;;;;;;11.52;3.95;;;28.30;99.90;;;;;;4935622;29;20059;-52
2023/06/23 11:29:21;;;;;;;9.95;4.13;;;28.30;99.90;;;;;;4935541;29;20048;-51
2023/06/23 11:32:06;;;;;;;13.93;5.40;;;28.40;99.90;;;;;;4933974;29;20035;-51
2023/06/23 11:34:51;;;;;;;9.68;3.90;;;28.40;99.90;;;;;;4941452;29;20023;-51
2023/06/23 11:37:17;;;;;;;11.93;4.13;;;28.40;99.90;;;;;;4935398;29;20496;-51
2023/06/23 11:39:43;;;;;;;11.82;4.03;;;28.40;99.90;;;;;;4935088;29;20036;-51
2023/06/23 11:42:09;;;;;;;12.45;4.15;;;28.40;99.90;;;;;;4935417;29;20067;-51
2023/06/23 11:44:34;;;;;;;25.67;5.32;;;28.40;99.90;;;;;;4943388;29;20056;-51
2023/06/23 11:47:00;;;;;;;8.95;3.50;;;28.40;99.90;;;;;;4939754;29;20031;-50
2023/06/23 11:49:27;;;;;;;8.85;4.00;;;28.40;99.90;;;;;;4944678;29;20420;-51
2023/06/23 11:52:00;;;;;;;15.23;5.57;;;28.40;99.90;;;;;;4953590;29;20059;-51
2023/06/23 11:54:32;;;;;;;13.35;4.28;;;28.40;99.90;;;;;;4944765;29;20047;-51
2023/06/23 11:57:00;;;;;;;7.57;3.38;;;28.50;99.90;;;;;;4950450;28;20428;-51
2023/06/23 11:59:26;;;;;;;10.13;3.85;;;28.50;99.90;;;;;;4944881;29;20043;-51
2023/06/23 12:01:52;;;;;;;7.13;3.65;;;28.50;99.90;;;;;;4953398;29;20051;-51
2023/06/23 12:04:22;;;;;;;10.40;4.45;;;28.50;99.90;;;;;;4942562;29;20157;-51
2023/06/23 12:06:51;;;;;;;10.38;3.55;;;28.50;99.90;;;;;;4948873;29;20019;-52
2023/06/23 12:09:20;;;;;;;8.20;4.15;;;28.50;99.90;;;;;;4953584;29;20023;-52
2023/06/23 12:11:50;;;;;;;10.30;3.90;;;28.50;99.90;;;;;;4941356;29;20020;-52
2023/06/23 12:14:16;;;;;;;9.68;3.72;;;28.50;99.90;;;;;;4947749;29;20037;-52
2023/06/23 12:16:42;;;;;;;7.63;3.38;;;28.50;99.90;;;;;;4934969;29;20036;-51
2023/06/23 12:19:07;;;;;;;11.85;4.15;;;28.60;99.90;;;;;;4952216;29;20047;-51
2023/06/23 12:21:39;;;;;;;10.45;4.28;;;28.60;99.90;;;;;;4954223;29;20050;-51
2023/06/23 12:24:08;;;;;;;11.55;4.70;;;28.60;99.90;;;;;;4953684;29;20023;-51
2023/06/23 12:26:34;;;;;;;7.68;4.50;;;28.60;99.90;;;;;;4952822;29;20153;-51
2023/06/23 12:29:08;;;;;;;12.25;4.43;;;28.60;99.90;;;;;;4939572;29;20078;-52
2023/06/23 12:31:34;;;;;;;10.98;5.82;;;28.70;99.90;;;;;;4935011;29;20090;-51
2023/06/23 12:34:01;;;;;;;8.63;4.43;;;28.70;99.90;;;;;;4947841;29;20111;-51
2023/06/23 12:36:27;;;;;;;;;;;28.80;99.90;;;;;;4952998;29;20019;-51
2023/06/23 12:38:54;;;;;;;13.68;5.00;;;28.80;99.90;;;;;;4941010;29;19978;-51
2023/06/23 12:41:26;;;;;;;11.02;5.43;;;28.80;99.90;;;;;;4950196;29;20019;-51
2023/06/23 12:44:03;;;;;;;7.82;4.30;;;28.80;99.90;;;;;;4943232;29;20044;-51
2023/06/23 12:46:30;;;;;;;10.73;5.30;;;28.90;99.90;;;;;;4945256;29;20035;-51
2023/06/23 12:48:57;;;;;;;13.02;4.78;;;28.90;99.90;;;;;;4948868;29;20086;-51
2023/06/23 12:51:33;;;;;;;10.57;4.28;;;28.90;99.90;;;;;;4917596;29;20023;-51
2023/06/23 12:54:02;;;;;;;7.67;3.73;;;28.90;99.90;;;;;;4938002;29;20023;-50
2023/06/23 12:56:28;;;;;;;11.23;4.40;;;29.00;99.90;;;;;;4953425;28;20432;-53